Raleigh County Memorial Airport
KBKW : now visible

Airfield :











YOU CAN JOIN US ON...

 
LOGIN :

Register | Disclaimer

   EN    FR    IT 

 









Legend :    VFR   Marginal VFR   IFR   Intensive IFR   Very Intensive IFR
Visi :
Ceiling :
>= 8 km
>= 3000ft
5 to 8 km
1000 to 3000 ft
1500m to 5 km
500 to 1000 ft
800 to 1500m
200 to 500 ft
< 800m
< 200 ft
Symbols :   Thunderstorms  Fog  Heavy snow  Heavy precipitations  Wind > 20 kt






- Airport Elevation : 2504 ft
- IATA code : BKW


KBKW - Raleigh County Memorial

CURRENT METAR :
  • 290451Z AUTO 00000KT 10SM SCT055 BKN075 14/12 A3005 RMK AO2 SLP153 T01390117 402330128 VISNO RWY19 $

EXPIRED METARs :
  • 290351Z AUTO 00000KT 10SM FEW049 SCT060 OVC080 14/11 A3005 RMK AO2 SLP156 T01440111 VISNO RWY19 $
  • 290251Z AUTO 22003KT 10SM SCT050 BKN070 14/11 A3005 RMK AO2 SLP155 T01440111 53013 VISNO RWY19 $
  • 290151Z AUTO 02004KT 10SM CLR 17/11 A3002 RMK AO2 SLP144 T01670106 VISNO RWY19
  • 290051Z AUTO 28003KT 10SM CLR 18/12 A3002 RMK AO2 SLP143 T01780117 VISNO RWY19

TAF KBKW
Valid from the 29 at 02:00 until the 30 at 00:00 UTC


290201Z 2902/2924 VRB03KT P6SM SCT070
FM291000 23005KT P6SM BKN070
FM291300 27009KT P6SM BKN040
FM291600 28010G18KT P6SM BKN045
FM292200 31011G18KT P6SM SCT060
KZID FIR / North America



MET'MAP, your aeronautical weather chart ! - Copyright ORBIFLY December 2007 - Disclaimer

ORBIFLY MET'MAP TEAM :

Programming & Development : Alexandra Zaïnal
Original concept : Baudouin d'Aumeries
Technical & hardware support : Manuel Goepfert
Assistance : Marc-Olivier Méhu




SOURCES & CREDITS :

   NOAA       Earth
Advisory